createdAt,value
2018-09-05T00:00:26.021Z,100.00
2018-09-05T00:02:57.389Z,100.00
2018-09-05T00:05:29.343Z,100.00
2018-09-05T00:08:01.680Z,100.00
2018-09-05T00:10:33.447Z,100.00
2018-09-05T00:13:05.301Z,100.00
2018-09-05T00:15:37.100Z,100.00
2018-09-05T00:18:08.381Z,100.00
2018-09-05T00:20:41.941Z,100.00
2018-09-05T00:23:13.413Z,100.00
2018-09-05T00:25:45.551Z,100.00
2018-09-05T00:28:18.012Z,100.00
2018-09-05T00:30:49.317Z,100.00
2018-09-05T00:33:21.240Z,100.00
2018-09-05T00:35:53.462Z,100.00
2018-09-05T00:38:24.589Z,100.00
2018-09-05T00:40:55.418Z,100.00
2018-09-05T00:43:26.216Z,100.00
2018-09-05T00:45:56.809Z,100.00
2018-09-05T00:48:29.061Z,100.00
2018-09-05T00:51:01.244Z,100.00
2018-09-05T00:53:33.077Z,100.00
2018-09-05T00:56:05.558Z,100.00
2018-09-05T00:58:37.648Z,100.00
2018-09-05T01:01:08.268Z,100.00
2018-09-05T01:03:38.953Z,100.00
2018-09-05T01:06:10.896Z,100.00
2018-09-05T01:08:42.242Z,100.00
2018-09-05T01:11:13.492Z,100.00
2018-09-05T01:13:43.962Z,100.00
2018-09-05T01:16:16.513Z,100.00
2018-09-05T01:18:47.136Z,100.00
2018-09-05T01:21:18.349Z,100.00
2018-09-05T01:23:49.184Z,100.00
2018-09-05T01:26:20.060Z,100.00
2018-09-05T01:28:50.813Z,100.00
2018-09-05T01:31:22.398Z,100.00
2018-09-05T01:33:54.030Z,100.00
2018-09-05T01:36:27.232Z,100.00
2018-09-05T01:39:01.085Z,100.00
2018-09-05T01:41:32.949Z,100.00
2018-09-05T01:44:04.455Z,100.00
2018-09-05T01:46:36.821Z,100.00
2018-09-05T01:49:08.145Z,100.00
2018-09-05T01:51:40.372Z,100.00
2018-09-05T01:54:12.274Z,100.00
2018-09-05T01:56:44.209Z,100.00
2018-09-05T01:59:15.989Z,100.00
2018-09-05T02:01:47.239Z,100.00
2018-09-05T02:04:19.666Z,100.00
2018-09-05T02:06:50.713Z,100.00
2018-09-05T02:09:22.940Z,100.00
2018-09-05T02:11:54.522Z,100.00
2018-09-05T02:14:25.885Z,100.00
2018-09-05T02:16:56.723Z,100.00
2018-09-05T02:19:28.416Z,100.00
2018-09-05T02:22:03.475Z,100.00
2018-09-05T02:24:35.822Z,100.00
2018-09-05T02:27:08.873Z,100.00
2018-09-05T02:29:39.953Z,100.00
2018-09-05T02:32:10.593Z,100.00
2018-09-05T02:34:41.505Z,100.00
2018-09-05T02:37:14.142Z,100.00
2018-09-05T02:39:45.454Z,100.00
2018-09-05T02:42:16.861Z,100.00
2018-09-05T02:44:47.918Z,100.00
2018-09-05T02:47:18.879Z,100.00
2018-09-05T02:49:50.615Z,100.00
2018-09-05T02:52:22.002Z,100.00
2018-09-05T02:54:54.141Z,100.00
2018-09-05T02:57:25.143Z,100.00
2018-09-05T02:59:58.269Z,100.00
2018-09-05T03:02:29.967Z,100.00
2018-09-05T03:05:01.892Z,100.00
2018-09-05T03:07:33.275Z,100.00
2018-09-05T03:10:05.463Z,100.00
2018-09-05T03:12:36.781Z,100.00
2018-09-05T03:15:08.394Z,100.00
2018-09-05T03:17:39.952Z,100.00
2018-09-05T03:20:13.327Z,100.00
2018-09-05T03:22:44.282Z,100.00
2018-09-05T03:25:16.935Z,100.00
2018-09-05T03:27:53.093Z,100.00
2018-09-05T03:30:23.871Z,100.00
2018-09-05T03:32:56.606Z,100.00
2018-09-05T03:35:28.137Z,100.00
2018-09-05T03:37:59.350Z,100.00
2018-09-05T03:40:30.766Z,100.00
2018-09-05T03:43:02.744Z,100.00
2018-09-05T03:45:35.532Z,100.00
2018-09-05T03:48:06.721Z,100.00
2018-09-05T03:50:38.627Z,100.00
2018-09-05T03:53:10.734Z,100.00
2018-09-05T03:55:42.024Z,100.00
2018-09-05T03:58:13.474Z,100.00
2018-09-05T04:00:45.925Z,100.00
2018-09-05T04:03:18.471Z,100.00
2018-09-05T04:05:50.387Z,100.00
2018-09-05T04:08:22.489Z,100.00
2018-09-05T04:10:54.050Z,100.00
2018-09-05T04:13:25.470Z,100.00
2018-09-05T04:15:57.422Z,100.00
2018-09-05T04:18:29.593Z,100.00
2018-09-05T04:21:01.144Z,100.00
2018-09-05T04:23:38.222Z,100.00
2018-09-05T04:26:09.358Z,100.00
2018-09-05T04:28:41.307Z,100.00
2018-09-05T04:31:14.118Z,100.00
2018-09-05T04:33:45.951Z,100.00
2018-09-05T04:36:18.641Z,100.00
2018-09-05T04:38:49.833Z,100.00
2018-09-05T04:41:21.073Z,100.00
2018-09-05T04:43:52.573Z,100.00
2018-09-05T04:46:24.225Z,100.00
2018-09-05T04:48:55.567Z,100.00
2018-09-05T04:51:27.481Z,100.00
2018-09-05T04:53:58.162Z,100.00
2018-09-05T04:56:30.005Z,100.00
2018-09-05T04:59:02.127Z,100.00
2018-09-05T05:01:33.015Z,100.00
2018-09-05T05:04:04.413Z,100.00
2018-09-05T05:06:35.751Z,100.00
2018-09-05T05:09:12.645Z,100.00
2018-09-05T05:11:44.325Z,100.00
2018-09-05T05:14:17.119Z,100.00
2018-09-05T05:16:48.575Z,100.00
2018-09-05T05:19:19.924Z,100.00
2018-09-05T05:21:52.368Z,100.00
2018-09-05T05:24:24.432Z,100.00
2018-09-05T05:26:57.235Z,100.00
2018-09-05T05:29:29.762Z,100.00
2018-09-05T05:32:01.957Z,100.00
2018-09-05T05:34:33.982Z,100.00
2018-09-05T05:37:06.646Z,100.00
2018-09-05T05:39:38.972Z,100.00
2018-09-05T05:42:10.029Z,100.00
2018-09-05T05:44:40.776Z,100.00
2018-09-05T05:47:13.653Z,99.52
2018-09-05T05:49:44.041Z,100.00
2018-09-05T05:52:14.655Z,100.00
2018-09-05T05:54:45.354Z,100.00
2018-09-05T05:57:17.287Z,98.98
2018-09-05T05:59:47.717Z,98.09
2018-09-05T06:02:18.249Z,96.85
2018-09-05T06:04:48.860Z,94.28
2018-09-05T06:07:20.011Z,92.78
2018-09-05T06:09:51.237Z,94.55
2018-09-05T06:12:21.868Z,94.57
2018-09-05T06:14:52.527Z,93.42
2018-09-05T06:17:23.072Z,90.81
2018-09-05T06:19:53.531Z,88.74
2018-09-05T06:22:24.257Z,83.82
2018-09-05T06:24:55.091Z,79.41
2018-09-05T06:27:26.140Z,75.07
2018-09-05T06:29:56.635Z,72.93
2018-09-05T06:32:27.011Z,72.60
2018-09-05T06:34:57.752Z,71.89
2018-09-05T06:37:28.273Z,73.35
2018-09-05T06:39:59.747Z,67.55
2018-09-05T06:42:30.432Z,66.06
2018-09-05T06:45:01.050Z,65.38
2018-09-05T06:47:31.464Z,65.58
2018-09-05T06:50:02.174Z,63.82
2018-09-05T06:52:32.723Z,61.79
2018-09-05T06:55:04.032Z,61.62
2018-09-05T06:57:34.851Z,58.98
2018-09-05T07:00:05.521Z,58.44
2018-09-05T07:02:36.270Z,58.66
2018-09-05T07:05:07.291Z,58.87
2018-09-05T07:07:38.021Z,58.23
2018-09-05T07:10:08.779Z,57.60
2018-09-05T07:12:39.623Z,56.95
2018-09-05T07:15:10.478Z,55.77
2018-09-05T07:17:43.166Z,56.89
2018-09-05T07:20:14.039Z,55.78
2018-09-05T07:22:45.112Z,55.45
2018-09-05T07:25:15.898Z,55.93
2018-09-05T07:27:47.401Z,54.95
2018-09-05T07:30:18.603Z,53.00
2018-09-05T07:32:49.574Z,53.28
2018-09-05T07:35:20.178Z,51.93
2018-09-05T07:37:52.735Z,50.83
2018-09-05T07:40:27.240Z,48.30
2018-09-05T07:42:57.699Z,48.67
2018-09-05T07:45:28.496Z,47.68
2018-09-05T07:47:59.099Z,46.78
2018-09-05T07:50:30.354Z,46.54
2018-09-05T07:53:02.227Z,47.05
2018-09-05T07:55:33.306Z,45.54
2018-09-05T07:58:03.745Z,45.37
2018-09-05T08:00:34.330Z,45.65
2018-09-05T08:03:04.977Z,43.45
2018-09-05T08:05:35.711Z,42.56
2018-09-05T08:08:06.454Z,43.83
2018-09-05T08:10:37.026Z,41.66
2018-09-05T08:13:07.589Z,40.03
2018-09-05T08:15:38.694Z,39.35
2018-09-05T08:18:09.745Z,36.90
2018-09-05T08:20:40.655Z,37.08
2018-09-05T08:23:11.259Z,36.65
2018-09-05T08:25:42.001Z,37.22
2018-09-05T08:28:13.296Z,37.10
2018-09-05T08:30:44.122Z,40.42
2018-09-05T08:33:15.353Z,38.04
2018-09-05T08:35:46.262Z,37.57
2018-09-05T08:38:16.698Z,35.68
2018-09-05T08:40:47.446Z,34.36
2018-09-05T08:43:17.941Z,33.63
2018-09-05T08:45:48.996Z,33.21
2018-09-05T08:48:20.579Z,31.59
2018-09-05T08:50:52.531Z,32.40
2018-09-05T08:53:25.923Z,34.04
2018-09-05T08:55:57.910Z,34.51
2018-09-05T08:58:29.862Z,32.74
2018-09-05T09:01:00.525Z,31.54
2018-09-05T09:03:31.210Z,31.85
2018-09-05T09:06:01.767Z,29.32
2018-09-05T09:08:32.346Z,30.81
2018-09-05T09:11:02.976Z,30.65
2018-09-05T09:13:33.607Z,29.41
2018-09-05T09:16:04.316Z,28.90
2018-09-05T09:18:35.188Z,28.11
2018-09-05T09:21:06.359Z,29.58
2018-09-05T09:23:37.283Z,28.38
2018-09-05T09:26:08.828Z,27.59
2018-09-05T09:28:39.415Z,27.79
2018-09-05T09:31:10.599Z,26.90
2018-09-05T09:33:41.111Z,24.78
2018-09-05T09:36:11.766Z,27.33
2018-09-05T09:38:42.450Z,28.60
2018-09-05T09:41:13.142Z,26.89
2018-09-05T09:43:44.832Z,25.94
2018-09-05T09:46:15.687Z,25.48
2018-09-05T09:48:46.276Z,26.40
2018-09-05T09:51:17.204Z,26.79
2018-09-05T09:53:47.754Z,26.33
2018-09-05T09:56:18.570Z,26.25
2018-09-05T09:58:49.250Z,25.77
2018-09-05T10:01:27.067Z,23.74
2018-09-05T10:04:08.134Z,25.89
2018-09-05T10:06:50.473Z,25.14
2018-09-05T10:09:26.263Z,24.95
2018-09-05T10:12:01.841Z,24.79
2018-09-05T10:14:32.629Z,24.73
2018-09-05T10:17:08.364Z,24.20
2018-09-05T10:19:38.969Z,24.91
2018-09-05T10:22:09.441Z,23.80
2018-09-05T10:24:40.004Z,23.91
2018-09-05T10:27:10.524Z,23.43
2018-09-05T10:29:41.519Z,22.87
2018-09-05T10:32:12.197Z,23.86
2018-09-05T10:34:42.951Z,23.77
2018-09-05T10:37:14.708Z,24.34
2018-09-05T10:39:45.269Z,23.49
2018-09-05T10:42:18.907Z,25.05
2018-09-05T10:44:49.636Z,24.48
2018-09-05T10:47:20.997Z,24.73
2018-09-05T10:49:51.510Z,24.02
2018-09-05T10:52:22.129Z,24.92
2018-09-05T10:54:52.625Z,24.03
2018-09-05T10:57:23.350Z,25.71
2018-09-05T10:59:53.934Z,24.62
2018-09-05T11:02:24.488Z,24.73
2018-09-05T11:04:54.955Z,23.77
2018-09-05T11:07:25.502Z,23.20
2018-09-05T11:09:56.632Z,23.33
2018-09-05T11:12:27.796Z,23.36
2018-09-05T11:14:59.213Z,22.81
2018-09-05T11:17:36.064Z,24.37
2018-09-05T11:20:09.683Z,24.13
2018-09-05T11:22:45.933Z,23.50
2018-09-05T11:25:17.810Z,22.21
2018-09-05T11:27:49.112Z,21.75
2018-09-05T11:30:20.535Z,21.06
2018-09-05T11:32:51.611Z,21.51
2018-09-05T11:35:22.287Z,20.96
2018-09-05T11:37:53.365Z,21.44
2018-09-05T11:40:24.901Z,21.92
2018-09-05T11:42:55.810Z,21.54
2018-09-05T11:45:26.805Z,22.51
2018-09-05T11:47:57.896Z,22.76
2018-09-05T11:50:30.101Z,22.22
2018-09-05T11:53:02.772Z,22.16
2018-09-05T11:55:34.363Z,20.83
2018-09-05T11:58:05.292Z,20.21
2018-09-05T12:00:36.143Z,19.72
2018-09-05T12:03:06.934Z,19.55
2018-09-05T12:05:37.545Z,20.73
2018-09-05T12:08:08.330Z,20.44
2018-09-05T12:10:39.114Z,19.54
2018-09-05T12:13:09.878Z,18.73
2018-09-05T12:15:41.206Z,18.78
2018-09-05T12:18:13.003Z,18.23
2018-09-05T12:20:43.867Z,18.30
2018-09-05T12:23:17.632Z,18.84
2018-09-05T12:25:48.229Z,18.56
2018-09-05T12:28:19.071Z,18.57
2018-09-05T12:30:49.716Z,18.43
2018-09-05T12:33:20.239Z,18.34
2018-09-05T12:35:50.803Z,18.78
2018-09-05T12:38:21.436Z,19.04
2018-09-05T12:40:51.943Z,19.06
2018-09-05T12:43:25.728Z,18.15
2018-09-05T12:45:56.799Z,19.34
2018-09-05T12:48:28.254Z,19.09
2018-09-05T12:50:59.018Z,22.88
2018-09-05T12:53:29.863Z,21.03
2018-09-05T12:56:01.587Z,20.88
2018-09-05T12:58:32.972Z,21.41
2018-09-05T13:01:05.039Z,20.41
2018-09-05T13:03:41.555Z,21.38
2018-09-05T13:06:12.066Z,21.59
2018-09-05T13:08:43.441Z,21.92
2018-09-05T13:11:15.692Z,22.25
2018-09-05T13:13:46.754Z,23.54
2018-09-05T13:16:18.519Z,24.92
2018-09-05T13:18:49.431Z,23.83
2018-09-05T13:21:20.240Z,23.49
2018-09-05T13:23:54.480Z,22.66
2018-09-05T13:26:28.005Z,23.09
2018-09-05T13:28:59.311Z,23.42
2018-09-05T13:31:30.497Z,23.21
2018-09-05T13:34:01.952Z,23.75
2018-09-05T13:36:34.779Z,23.06
2018-09-05T13:39:08.567Z,21.79
2018-09-05T13:41:39.676Z,21.16
2018-09-05T13:44:10.844Z,21.76
2018-09-05T13:46:42.161Z,22.12
2018-09-05T13:49:14.220Z,22.24
2018-09-05T13:51:48.781Z,22.28
2018-09-05T13:54:19.731Z,22.27
2018-09-05T13:56:50.761Z,22.15
2018-09-05T13:59:21.366Z,22.99
2018-09-05T14:01:52.166Z,23.95
2018-09-05T14:04:22.761Z,24.96
2018-09-05T14:06:53.529Z,24.80
2018-09-05T14:09:24.760Z,24.37
2018-09-05T14:11:55.979Z,24.98
2018-09-05T14:14:28.148Z,26.13
2018-09-05T14:16:59.649Z,26.13
2018-09-05T14:19:30.367Z,25.44
2018-09-05T14:22:01.240Z,24.88
2018-09-05T14:24:32.703Z,25.22
2018-09-05T14:27:03.336Z,25.98
2018-09-05T14:29:34.325Z,27.77
2018-09-05T14:32:06.683Z,28.60
2018-09-05T14:34:37.254Z,29.46
2018-09-05T14:37:08.448Z,30.29
2018-09-05T14:39:39.502Z,30.48
2018-09-05T14:42:10.651Z,31.14
2018-09-05T14:44:42.507Z,30.35
2018-09-05T14:47:14.116Z,28.09
2018-09-05T14:49:45.599Z,26.58
2018-09-05T14:52:16.674Z,26.00
2018-09-05T14:54:47.441Z,25.26
2018-09-05T14:57:18.792Z,25.50
2018-09-05T14:59:49.523Z,26.03
2018-09-05T15:02:21.214Z,24.86
2018-09-05T15:04:52.169Z,25.38
2018-09-05T15:07:23.075Z,24.65
2018-09-05T15:09:53.839Z,25.10
2018-09-05T15:12:24.586Z,25.92
2018-09-05T15:14:55.396Z,26.22
2018-09-05T15:17:26.097Z,29.08
2018-09-05T15:19:58.882Z,28.17
2018-09-05T15:22:29.925Z,28.27
2018-09-05T15:25:02.150Z,28.84
2018-09-05T15:27:34.267Z,30.94
2018-09-05T15:30:07.670Z,33.00
2018-09-05T15:32:39.793Z,34.39
2018-09-05T15:35:11.838Z,34.14
2018-09-05T15:37:42.527Z,35.59
2018-09-05T15:40:13.340Z,37.09
2018-09-05T15:42:44.702Z,37.08
2018-09-05T15:45:15.555Z,38.10
2018-09-05T15:47:46.632Z,38.00
2018-09-05T15:50:17.466Z,40.10
2018-09-05T15:52:48.210Z,39.84
2018-09-05T15:55:18.991Z,40.49
2018-09-05T15:57:50.308Z,40.38
2018-09-05T16:00:21.288Z,41.16
2018-09-05T16:02:52.240Z,40.73
2018-09-05T16:05:24.055Z,41.62
2018-09-05T16:07:59.037Z,41.77
2018-09-05T16:10:32.558Z,41.15
2018-09-05T16:13:03.338Z,41.36
2018-09-05T16:15:34.936Z,42.49
2018-09-05T16:18:05.623Z,42.53
2018-09-05T16:20:37.592Z,42.31
2018-09-05T16:23:09.040Z,42.60
2018-09-05T16:25:40.525Z,42.68
2018-09-05T16:28:13.592Z,42.64
2018-09-05T16:30:46.794Z,44.74
2018-09-05T16:33:20.256Z,44.75
2018-09-05T16:35:53.360Z,45.30
2018-09-05T16:38:24.383Z,44.94
2018-09-05T16:40:55.246Z,46.28
2018-09-05T16:43:26.298Z,49.09
2018-09-05T16:45:57.208Z,47.06
2018-09-05T16:48:29.995Z,46.74
2018-09-05T16:51:04.922Z,47.81
2018-09-05T16:53:37.717Z,47.29
2018-09-05T16:56:09.763Z,47.47
2018-09-05T16:58:40.916Z,47.47
2018-09-05T17:01:12.152Z,48.54
2018-09-05T17:03:45.141Z,48.15
2018-09-05T17:06:18.001Z,48.62
2018-09-05T17:08:50.230Z,49.11
2018-09-05T17:11:21.030Z,49.53
2018-09-05T17:13:52.428Z,50.48
2018-09-05T17:16:24.226Z,50.39
2018-09-05T17:18:55.429Z,51.69
2018-09-05T17:21:26.785Z,52.26
2018-09-05T17:23:58.399Z,52.42
2018-09-05T17:26:30.187Z,52.44
2018-09-05T17:29:01.021Z,52.43
2018-09-05T17:31:32.551Z,54.28
2018-09-05T17:34:04.697Z,55.05
2018-09-05T17:36:36.710Z,55.48
2018-09-05T17:39:11.422Z,56.51
2018-09-05T17:41:42.814Z,57.25
2018-09-05T17:44:14.229Z,58.08
2018-09-05T17:46:45.624Z,58.86
2018-09-05T17:49:19.382Z,58.61
2018-09-05T17:51:51.551Z,59.16
2018-09-05T17:54:22.649Z,59.77
2018-09-05T17:56:55.116Z,59.09
2018-09-05T17:59:26.882Z,59.29
2018-09-05T18:01:58.610Z,60.34
2018-09-05T18:04:30.359Z,60.55
2018-09-05T18:07:02.951Z,61.21
2018-09-05T18:09:35.671Z,62.07
2018-09-05T18:12:07.835Z,61.85
2018-09-05T18:14:42.437Z,62.04
2018-09-05T18:17:15.620Z,62.99
2018-09-05T18:19:47.304Z,63.31
2018-09-05T18:22:19.315Z,63.63
2018-09-05T18:24:51.085Z,64.05
2018-09-05T18:27:22.982Z,64.33
2018-09-05T18:29:54.663Z,65.68
2018-09-05T18:32:26.533Z,66.07
2018-09-05T18:34:58.778Z,65.99
2018-09-05T18:37:31.247Z,65.92
2018-09-05T18:40:03.593Z,66.64
2018-09-05T18:42:35.619Z,66.79
2018-09-05T18:45:08.606Z,66.80
2018-09-05T18:47:40.847Z,67.53
2018-09-05T18:50:12.994Z,67.19
2018-09-05T18:52:45.698Z,67.52
2018-09-05T18:55:18.754Z,68.00
2018-09-05T18:57:50.789Z,68.04
2018-09-05T19:00:23.608Z,68.25
2018-09-05T19:02:55.784Z,68.92
2018-09-05T19:05:29.271Z,68.80
2018-09-05T19:08:01.972Z,69.46
2018-09-05T19:10:37.694Z,69.41
2018-09-05T19:13:13.434Z,70.41
2018-09-05T19:15:51.437Z,71.01
2018-09-05T19:18:25.301Z,70.61
2018-09-05T19:20:57.459Z,71.00
2018-09-05T19:23:29.450Z,70.82
2018-09-05T19:26:01.886Z,71.23
2018-09-05T19:28:33.990Z,71.39
2018-09-05T19:31:06.022Z,71.59
2018-09-05T19:33:39.525Z,72.25
2018-09-05T19:36:12.849Z,72.32
2018-09-05T19:38:44.529Z,72.13
2018-09-05T19:41:16.953Z,73.00
2018-09-05T19:43:48.955Z,72.57
2018-09-05T19:46:22.474Z,73.42
2018-09-05T19:48:54.836Z,73.13
2018-09-05T19:51:26.741Z,74.03
2018-09-05T19:53:59.826Z,74.95
2018-09-05T19:56:34.528Z,75.14
2018-09-05T19:59:08.176Z,75.41
2018-09-05T20:01:45.105Z,74.96
2018-09-05T20:04:19.888Z,75.27
2018-09-05T20:06:57.765Z,75.13
2018-09-05T20:09:33.428Z,75.85
2018-09-05T20:12:07.993Z,76.36
2018-09-05T20:14:44.473Z,76.05
2018-09-05T20:17:17.514Z,76.46
2018-09-05T20:19:55.445Z,76.46
2018-09-05T20:22:33.568Z,76.57
2018-09-05T20:25:22.063Z,77.07
2018-09-05T20:27:55.112Z,77.00
2018-09-05T20:30:27.180Z,77.01
2018-09-05T20:32:59.117Z,77.25
2018-09-05T20:35:31.527Z,77.78
2018-09-05T20:38:03.456Z,77.74
2018-09-05T20:40:35.658Z,77.91
2018-09-05T20:43:07.372Z,78.08
2018-09-05T20:45:39.049Z,78.12
2018-09-05T20:48:11.700Z,78.19
2018-09-05T20:50:43.705Z,78.55
2018-09-05T20:53:16.467Z,78.08
2018-09-05T20:55:48.478Z,78.24
2018-09-05T20:58:21.195Z,78.46
2018-09-05T21:00:53.448Z,77.82
2018-09-05T21:03:26.518Z,77.61
2018-09-05T21:05:59.077Z,77.77
2018-09-05T21:08:30.970Z,77.73
2018-09-05T21:11:02.681Z,78.06
2018-09-05T21:13:35.196Z,78.11
2018-09-05T21:16:08.376Z,78.13
2018-09-05T21:18:40.391Z,78.44
2018-09-05T21:21:12.693Z,78.90
2018-09-05T21:23:44.036Z,79.25
2018-09-05T21:26:15.613Z,79.07
2018-09-05T21:28:46.494Z,79.30
2018-09-05T21:31:17.494Z,79.62
2018-09-05T21:33:48.568Z,79.86
2018-09-05T21:36:19.604Z,80.73
2018-09-05T21:38:50.312Z,81.11
2018-09-05T21:41:20.910Z,82.12
2018-09-05T21:43:51.625Z,83.29
2018-09-05T21:46:22.614Z,84.17
2018-09-05T21:48:53.446Z,84.48
2018-09-05T21:51:24.055Z,84.73
2018-09-05T21:53:54.600Z,85.45
2018-09-05T21:56:25.117Z,85.04
2018-09-05T21:58:55.673Z,85.15
2018-09-05T22:01:26.232Z,84.31
2018-09-05T22:03:56.946Z,83.91
2018-09-05T22:06:27.536Z,83.72
2018-09-05T22:08:58.343Z,85.08
2018-09-05T22:11:28.834Z,85.24
2018-09-05T22:13:59.873Z,85.12
2018-09-05T22:16:30.927Z,85.57
2018-09-05T22:19:02.156Z,84.54
2018-09-05T22:21:32.681Z,84.20
2018-09-05T22:24:03.550Z,85.04
2018-09-05T22:26:34.052Z,85.45
2018-09-05T22:29:04.659Z,85.65
2018-09-05T22:31:35.372Z,85.88
2018-09-05T22:34:06.228Z,85.73
2018-09-05T22:36:36.726Z,85.94
2018-09-05T22:39:09.458Z,86.36
2018-09-05T22:41:40.003Z,86.09
2018-09-05T22:44:27.048Z,86.02
2018-09-05T22:47:14.827Z,86.08
2018-09-05T22:50:07.709Z,86.76
2018-09-05T22:56:00.521Z,86.81
2018-09-05T23:00:54.389Z,87.04
2018-09-05T23:04:49.061Z,87.15
2018-09-05T23:07:35.095Z,87.30
2018-09-05T23:10:21.872Z,87.58
2018-09-05T23:13:08.714Z,87.23
2018-09-05T23:15:55.493Z,87.22
2018-09-05T23:18:47.975Z,88.02
2018-09-05T23:21:21.312Z,87.99
2018-09-05T23:24:11.268Z,89.23
2018-09-05T23:26:42.380Z,88.73
2018-09-05T23:29:12.841Z,89.11
2018-09-05T23:31:43.390Z,88.96
2018-09-05T23:34:13.805Z,88.68
2018-09-05T23:36:44.313Z,88.37
2018-09-05T23:39:14.665Z,88.80
2018-09-05T23:41:45.170Z,88.94
2018-09-05T23:44:15.695Z,89.76
2018-09-05T23:46:46.141Z,89.98
2018-09-05T23:49:16.517Z,89.32
2018-09-05T23:51:47.021Z,89.51
2018-09-05T23:54:17.400Z,90.15
2018-09-05T23:56:47.928Z,90.22
2018-09-05T23:59:19.050Z,89.45
